sensor_id;sensor_type;location;lat;lon;timestamp;P1;durP1;ratioP1;P2;durP2;ratioP2
32964;SDS011;19317;48.226;11.686;2024-03-07T00:00:53;12.53;;;11.20;;
32964;SDS011;19317;48.226;11.686;2024-03-07T00:05:44;14.10;;;12.60;;
32964;SDS011;19317;48.226;11.686;2024-03-07T00:10:35;15.47;;;12.73;;
32964;SDS011;19317;48.226;11.686;2024-03-07T00:15:26;13.87;;;12.37;;
32964;SDS011;19317;48.226;11.686;2024-03-07T00:20:17;15.67;;;13.20;;
32964;SDS011;19317;48.226;11.686;2024-03-07T00:25:08;15.07;;;12.77;;
32964;SDS011;19317;48.226;11.686;2024-03-07T00:29:59;16.30;;;14.23;;
32964;SDS011;19317;48.226;11.686;2024-03-07T00:34:50;17.03;;;14.03;;
32964;SDS011;19317;48.226;11.686;2024-03-07T00:39:41;16.13;;;13.57;;
32964;SDS011;19317;48.226;11.686;2024-03-07T00:44:32;17.73;;;15.13;;
32964;SDS011;19317;48.226;11.686;2024-03-07T00:49:23;16.00;;;14.03;;
32964;SDS011;19317;48.226;11.686;2024-03-07T00:54:14;17.93;;;14.83;;
32964;SDS011;19317;48.226;11.686;2024-03-07T00:59:05;17.90;;;14.77;;
32964;SDS011;19317;48.226;11.686;2024-03-07T01:03:56;20.20;;;14.57;;
32964;SDS011;19317;48.226;11.686;2024-03-07T01:08:47;19.33;;;14.80;;
32964;SDS011;19317;48.226;11.686;2024-03-07T01:13:41;20.27;;;16.50;;
32964;SDS011;19317;48.226;11.686;2024-03-07T01:18:32;20.30;;;16.63;;
32964;SDS011;19317;48.226;11.686;2024-03-07T01:23:23;18.57;;;14.33;;
32964;SDS011;19317;48.226;11.686;2024-03-07T01:28:13;21.37;;;16.57;;
32964;SDS011;19317;48.226;11.686;2024-03-07T01:33:04;19.13;;;15.40;;
32964;SDS011;19317;48.226;11.686;2024-03-07T01:37:55;20.37;;;16.43;;
32964;SDS011;19317;48.226;11.686;2024-03-07T01:42:49;22.67;;;16.40;;
32964;SDS011;19317;48.226;11.686;2024-03-07T01:47:40;23.33;;;16.67;;
32964;SDS011;19317;48.226;11.686;2024-03-07T01:52:31;18.90;;;15.97;;
32964;SDS011;19317;48.226;11.686;2024-03-07T01:57:22;18.77;;;14.97;;
32964;SDS011;19317;48.226;11.686;2024-03-07T02:02:13;20.53;;;15.63;;
32964;SDS011;19317;48.226;11.686;2024-03-07T02:07:04;19.90;;;15.53;;
32964;SDS011;19317;48.226;11.686;2024-03-07T02:11:54;20.37;;;17.47;;
32964;SDS011;19317;48.226;11.686;2024-03-07T02:16:45;22.33;;;17.93;;
32964;SDS011;19317;48.226;11.686;2024-03-07T02:21:36;22.17;;;16.67;;
32964;SDS011;19317;48.226;11.686;2024-03-07T02:26:27;21.90;;;16.73;;
32964;SDS011;19317;48.226;11.686;2024-03-07T02:31:18;23.83;;;19.10;;
32964;SDS011;19317;48.226;11.686;2024-03-07T02:36:09;32.47;;;24.27;;
32964;SDS011;19317;48.226;11.686;2024-03-07T02:41:00;34.13;;;25.10;;
32964;SDS011;19317;48.226;11.686;2024-03-07T02:45:51;39.87;;;27.07;;
32964;SDS011;19317;48.226;11.686;2024-03-07T02:50:42;40.73;;;27.47;;
32964;SDS011;19317;48.226;11.686;2024-03-07T02:55:32;39.10;;;26.97;;
32964;SDS011;19317;48.226;11.686;2024-03-07T03:00:23;38.73;;;26.77;;
32964;SDS011;19317;48.226;11.686;2024-03-07T03:05:15;37.53;;;26.50;;
32964;SDS011;19317;48.226;11.686;2024-03-07T03:10:06;37.03;;;26.87;;
32964;SDS011;19317;48.226;11.686;2024-03-07T03:14:57;36.80;;;26.80;;
32964;SDS011;19317;48.226;11.686;2024-03-07T03:19:48;36.30;;;26.30;;
32964;SDS011;19317;48.226;11.686;2024-03-07T03:24:39;36.43;;;25.87;;
32964;SDS011;19317;48.226;11.686;2024-03-07T03:29:29;33.70;;;25.20;;
32964;SDS011;19317;48.226;11.686;2024-03-07T03:34:20;31.73;;;24.93;;
32964;SDS011;19317;48.226;11.686;2024-03-07T03:39:11;39.67;;;28.17;;
32964;SDS011;19317;48.226;11.686;2024-03-07T03:44:02;38.73;;;24.90;;
32964;SDS011;19317;48.226;11.686;2024-03-07T03:48:53;37.80;;;26.60;;
32964;SDS011;19317;48.226;11.686;2024-03-07T03:53:44;38.73;;;28.43;;
32964;SDS011;19317;48.226;11.686;2024-03-07T03:58:35;40.37;;;28.27;;
32964;SDS011;19317;48.226;11.686;2024-03-07T04:03:25;36.90;;;27.43;;
32964;SDS011;19317;48.226;11.686;2024-03-07T04:08:16;35.90;;;26.53;;
32964;SDS011;19317;48.226;11.686;2024-03-07T04:13:07;39.03;;;28.07;;
32964;SDS011;19317;48.226;11.686;2024-03-07T04:17:58;36.40;;;27.47;;
32964;SDS011;19317;48.226;11.686;2024-03-07T04:22:49;39.90;;;27.17;;
32964;SDS011;19317;48.226;11.686;2024-03-07T04:27:40;43.60;;;30.00;;
32964;SDS011;19317;48.226;11.686;2024-03-07T04:32:31;41.70;;;28.13;;
32964;SDS011;19317;48.226;11.686;2024-03-07T04:37:22;38.63;;;28.27;;
32964;SDS011;19317;48.226;11.686;2024-03-07T04:42:12;40.90;;;29.83;;
32964;SDS011;19317;48.226;11.686;2024-03-07T04:47:03;38.37;;;28.87;;
32964;SDS011;19317;48.226;11.686;2024-03-07T04:51:55;40.27;;;29.07;;
32964;SDS011;19317;48.226;11.686;2024-03-07T04:56:46;42.63;;;30.00;;
32964;SDS011;19317;48.226;11.686;2024-03-07T05:01:37;41.00;;;29.83;;
32964;SDS011;19317;48.226;11.686;2024-03-07T05:06:28;41.37;;;29.73;;
32964;SDS011;19317;48.226;11.686;2024-03-07T05:11:19;41.67;;;28.27;;
32964;SDS011;19317;48.226;11.686;2024-03-07T05:16:10;40.77;;;28.53;;
32964;SDS011;19317;48.226;11.686;2024-03-07T05:21:01;41.83;;;29.47;;
32964;SDS011;19317;48.226;11.686;2024-03-07T05:25:52;41.73;;;28.73;;
32964;SDS011;19317;48.226;11.686;2024-03-07T05:30:43;39.80;;;27.77;;
32964;SDS011;19317;48.226;11.686;2024-03-07T05:35:34;41.90;;;28.73;;
32964;SDS011;19317;48.226;11.686;2024-03-07T05:40:24;42.00;;;27.53;;
32964;SDS011;19317;48.226;11.686;2024-03-07T05:45:15;40.90;;;31.00;;
32964;SDS011;19317;48.226;11.686;2024-03-07T05:50:06;40.10;;;28.40;;
32964;SDS011;19317;48.226;11.686;2024-03-07T05:54:57;39.13;;;28.40;;
32964;SDS011;19317;48.226;11.686;2024-03-07T05:59:48;37.43;;;28.73;;
32964;SDS011;19317;48.226;11.686;2024-03-07T06:04:39;38.23;;;28.23;;
32964;SDS011;19317;48.226;11.686;2024-03-07T06:09:30;38.23;;;26.97;;
32964;SDS011;19317;48.226;11.686;2024-03-07T06:14:21;41.10;;;27.80;;
32964;SDS011;19317;48.226;11.686;2024-03-07T06:19:12;36.53;;;26.27;;
32964;SDS011;19317;48.226;11.686;2024-03-07T06:24:03;39.30;;;27.43;;
32964;SDS011;19317;48.226;11.686;2024-03-07T06:28:54;39.93;;;27.77;;
32964;SDS011;19317;48.226;11.686;2024-03-07T06:33:46;37.17;;;26.93;;
32964;SDS011;19317;48.226;11.686;2024-03-07T06:38:37;37.60;;;26.33;;
32964;SDS011;19317;48.226;11.686;2024-03-07T06:43:28;39.83;;;27.33;;
32964;SDS011;19317;48.226;11.686;2024-03-07T06:48:19;37.80;;;26.97;;
32964;SDS011;19317;48.226;11.686;2024-03-07T06:53:10;34.73;;;25.20;;
32964;SDS011;19317;48.226;11.686;2024-03-07T06:58:00;33.50;;;27.10;;
32964;SDS011;19317;48.226;11.686;2024-03-07T07:02:52;35.77;;;26.63;;
32964;SDS011;19317;48.226;11.686;2024-03-07T07:07:43;34.43;;;25.03;;
32964;SDS011;19317;48.226;11.686;2024-03-07T07:12:34;35.17;;;24.80;;
32964;SDS011;19317;48.226;11.686;2024-03-07T07:17:25;34.77;;;24.70;;
32964;SDS011;19317;48.226;11.686;2024-03-07T07:22:16;30.40;;;23.50;;
32964;SDS011;19317;48.226;11.686;2024-03-07T07:27:07;31.47;;;23.73;;
32964;SDS011;19317;48.226;11.686;2024-03-07T07:31:58;34.60;;;24.93;;
32964;SDS011;19317;48.226;11.686;2024-03-07T07:36:49;32.10;;;24.23;;
32964;SDS011;19317;48.226;11.686;2024-03-07T07:41:39;32.70;;;23.53;;
32964;SDS011;19317;48.226;11.686;2024-03-07T07:46:30;33.33;;;23.40;;
32964;SDS011;19317;48.226;11.686;2024-03-07T07:51:22;33.47;;;24.57;;
32964;SDS011;19317;48.226;11.686;2024-03-07T07:56:13;36.67;;;25.30;;
32964;SDS011;19317;48.226;11.686;2024-03-07T08:01:04;37.07;;;24.37;;
32964;SDS011;19317;48.226;11.686;2024-03-07T08:05:54;31.20;;;23.90;;
32964;SDS011;19317;48.226;11.686;2024-03-07T08:10:45;29.97;;;23.33;;
32964;SDS011;19317;48.226;11.686;2024-03-07T08:15:36;35.57;;;24.27;;
32964;SDS011;19317;48.226;11.686;2024-03-07T08:20:27;34.00;;;24.43;;
32964;SDS011;19317;48.226;11.686;2024-03-07T08:25:19;34.80;;;25.10;;
32964;SDS011;19317;48.226;11.686;2024-03-07T08:30:10;34.53;;;24.70;;
32964;SDS011;19317;48.226;11.686;2024-03-07T08:35:01;35.60;;;24.53;;
32964;SDS011;19317;48.226;11.686;2024-03-07T08:39:52;31.63;;;22.33;;
32964;SDS011;19317;48.226;11.686;2024-03-07T08:44:43;33.17;;;24.37;;
32964;SDS011;19317;48.226;11.686;2024-03-07T08:49:34;31.13;;;23.57;;
32964;SDS011;19317;48.226;11.686;2024-03-07T08:54:25;33.60;;;24.53;;
32964;SDS011;19317;48.226;11.686;2024-03-07T08:59:16;33.20;;;23.97;;
32964;SDS011;19317;48.226;11.686;2024-03-07T09:04:06;33.50;;;23.67;;
32964;SDS011;19317;48.226;11.686;2024-03-07T09:08:57;32.77;;;23.27;;
32964;SDS011;19317;48.226;11.686;2024-03-07T09:13:48;32.47;;;24.00;;
32964;SDS011;19317;48.226;11.686;2024-03-07T09:18:39;33.70;;;24.57;;
32964;SDS011;19317;48.226;11.686;2024-03-07T09:23:30;31.57;;;24.00;;
32964;SDS011;19317;48.226;11.686;2024-03-07T09:28:21;33.60;;;24.37;;
32964;SDS011;19317;48.226;11.686;2024-03-07T09:33:12;31.03;;;24.00;;
32964;SDS011;19317;48.226;11.686;2024-03-07T09:38:03;29.77;;;24.30;;
32964;SDS011;19317;48.226;11.686;2024-03-07T09:42:54;31.60;;;24.77;;
32964;SDS011;19317;48.226;11.686;2024-03-07T09:47:47;33.47;;;24.47;;
32964;SDS011;19317;48.226;11.686;2024-03-07T09:52:38;34.43;;;24.77;;
32964;SDS011;19317;48.226;11.686;2024-03-07T09:57:30;31.93;;;24.10;;
32964;SDS011;19317;48.226;11.686;2024-03-07T10:02:23;32.00;;;23.93;;
32964;SDS011;19317;48.226;11.686;2024-03-07T10:07:14;30.87;;;23.63;;
32964;SDS011;19317;48.226;11.686;2024-03-07T10:12:06;33.27;;;23.43;;
32964;SDS011;19317;48.226;11.686;2024-03-07T10:16:57;35.90;;;24.17;;
32964;SDS011;19317;48.226;11.686;2024-03-07T10:21:48;33.83;;;24.47;;
32964;SDS011;19317;48.226;11.686;2024-03-07T10:26:38;31.33;;;23.63;;
32964;SDS011;19317;48.226;11.686;2024-03-07T10:31:30;30.47;;;23.17;;
32964;SDS011;19317;48.226;11.686;2024-03-07T10:36:21;31.27;;;23.13;;
32964;SDS011;19317;48.226;11.686;2024-03-07T10:41:11;29.53;;;22.50;;
32964;SDS011;19317;48.226;11.686;2024-03-07T10:46:02;31.07;;;23.23;;
32964;SDS011;19317;48.226;11.686;2024-03-07T11:00:52;25.80;;;20.40;;
32964;SDS011;19317;48.226;11.686;2024-03-07T11:05:45;24.40;;;19.93;;
32964;SDS011;19317;48.226;11.686;2024-03-07T11:10:36;29.23;;;22.03;;
32964;SDS011;19317;48.226;11.686;2024-03-07T11:15:27;32.97;;;24.03;;
32964;SDS011;19317;48.226;11.686;2024-03-07T11:20:25;30.30;;;23.13;;
32964;SDS011;19317;48.226;11.686;2024-03-07T11:25:20;29.50;;;22.63;;
32964;SDS011;19317;48.226;11.686;2024-03-07T11:30:11;28.40;;;22.20;;
32964;SDS011;19317;48.226;11.686;2024-03-07T11:35:03;30.23;;;22.20;;
32964;SDS011;19317;48.226;11.686;2024-03-07T11:39:55;31.33;;;22.73;;
32964;SDS011;19317;48.226;11.686;2024-03-07T11:44:45;29.50;;;22.60;;
32964;SDS011;19317;48.226;11.686;2024-03-07T11:49:36;29.10;;;20.93;;
32964;SDS011;19317;48.226;11.686;2024-03-07T11:54:27;28.57;;;21.77;;
32964;SDS011;19317;48.226;11.686;2024-03-07T11:59:18;28.30;;;21.70;;
32964;SDS011;19317;48.226;11.686;2024-03-07T12:04:09;29.53;;;22.37;;
32964;SDS011;19317;48.226;11.686;2024-03-07T12:09:00;30.20;;;23.00;;
32964;SDS011;19317;48.226;11.686;2024-03-07T12:13:51;29.20;;;22.10;;
32964;SDS011;19317;48.226;11.686;2024-03-07T12:18:42;29.93;;;21.50;;
32964;SDS011;19317;48.226;11.686;2024-03-07T12:23:33;28.97;;;22.03;;
32964;SDS011;19317;48.226;11.686;2024-03-07T12:28:24;29.43;;;22.63;;
32964;SDS011;19317;48.226;11.686;2024-03-07T12:33:15;28.50;;;20.83;;
32964;SDS011;19317;48.226;11.686;2024-03-07T12:38:07;28.80;;;23.47;;
32964;SDS011;19317;48.226;11.686;2024-03-07T12:42:58;28.87;;;21.77;;
32964;SDS011;19317;48.226;11.686;2024-03-07T12:47:52;26.97;;;21.93;;
32964;SDS011;19317;48.226;11.686;2024-03-07T12:52:43;28.73;;;21.23;;
32964;SDS011;19317;48.226;11.686;2024-03-07T12:57:34;26.73;;;21.03;;
32964;SDS011;19317;48.226;11.686;2024-03-07T13:02:25;30.17;;;21.83;;
32964;SDS011;19317;48.226;11.686;2024-03-07T13:07:16;26.63;;;21.07;;
32964;SDS011;19317;48.226;11.686;2024-03-07T13:12:07;29.20;;;21.27;;
32964;SDS011;19317;48.226;11.686;2024-03-07T13:16:58;23.60;;;19.90;;
32964;SDS011;19317;48.226;11.686;2024-03-07T13:21:49;27.63;;;20.87;;
32964;SDS011;19317;48.226;11.686;2024-03-07T13:26:40;26.07;;;20.43;;
32964;SDS011;19317;48.226;11.686;2024-03-07T13:31:33;27.83;;;20.60;;
32964;SDS011;19317;48.226;11.686;2024-03-07T13:36:24;27.57;;;21.70;;
32964;SDS011;19317;48.226;11.686;2024-03-07T13:41:15;30.67;;;20.97;;
32964;SDS011;19317;48.226;11.686;2024-03-07T13:46:05;27.40;;;21.40;;
32964;SDS011;19317;48.226;11.686;2024-03-07T13:50:56;26.40;;;19.97;;
32964;SDS011;19317;48.226;11.686;2024-03-07T14:00:49;27.27;;;21.53;;
32964;SDS011;19317;48.226;11.686;2024-03-07T14:06:02;28.20;;;21.90;;
32964;SDS011;19317;48.226;11.686;2024-03-07T14:16:18;29.30;;;21.70;;
32964;SDS011;19317;48.226;11.686;2024-03-07T14:31:15;24.40;;;19.43;;
32964;SDS011;19317;48.226;11.686;2024-03-07T14:36:07;24.77;;;19.57;;
32964;SDS011;19317;48.226;11.686;2024-03-07T14:40:59;20.43;;;17.13;;
32964;SDS011;19317;48.226;11.686;2024-03-07T14:45:50;20.87;;;17.23;;
32964;SDS011;19317;48.226;11.686;2024-03-07T14:50:42;20.03;;;16.50;;
32964;SDS011;19317;48.226;11.686;2024-03-07T14:55:33;17.73;;;14.97;;
32964;SDS011;19317;48.226;11.686;2024-03-07T15:00:25;17.33;;;13.60;;
32964;SDS011;19317;48.226;11.686;2024-03-07T15:05:17;13.27;;;10.43;;
32964;SDS011;19317;48.226;11.686;2024-03-07T15:10:11;12.23;;;10.93;;
32964;SDS011;19317;48.226;11.686;2024-03-07T15:15:04;11.73;;;9.93;;
32964;SDS011;19317;48.226;11.686;2024-03-07T15:19:55;12.07;;;10.33;;
32964;SDS011;19317;48.226;11.686;2024-03-07T15:24:46;9.87;;;8.60;;
32964;SDS011;19317;48.226;11.686;2024-03-07T15:29:38;10.90;;;8.73;;
32964;SDS011;19317;48.226;11.686;2024-03-07T15:34:29;10.83;;;9.73;;
32964;SDS011;19317;48.226;11.686;2024-03-07T15:39:20;11.43;;;9.13;;
32964;SDS011;19317;48.226;11.686;2024-03-07T15:44:11;10.80;;;9.63;;
32964;SDS011;19317;48.226;11.686;2024-03-07T15:49:02;12.30;;;9.50;;
32964;SDS011;19317;48.226;11.686;2024-03-07T15:53:53;11.30;;;10.10;;
32964;SDS011;19317;48.226;11.686;2024-03-07T15:58:44;11.80;;;8.43;;
32964;SDS011;19317;48.226;11.686;2024-03-07T16:03:35;10.07;;;8.80;;
32964;SDS011;19317;48.226;11.686;2024-03-07T16:08:26;10.47;;;8.40;;
32964;SDS011;19317;48.226;11.686;2024-03-07T16:13:16;9.97;;;8.60;;
32964;SDS011;19317;48.226;11.686;2024-03-07T16:18:07;10.30;;;8.87;;
32964;SDS011;19317;48.226;11.686;2024-03-07T16:22:58;9.33;;;8.30;;
32964;SDS011;19317;48.226;11.686;2024-03-07T16:27:50;11.23;;;8.87;;
32964;SDS011;19317;48.226;11.686;2024-03-07T16:32:43;10.03;;;8.97;;
32964;SDS011;19317;48.226;11.686;2024-03-07T16:37:34;10.00;;;8.53;;
32964;SDS011;19317;48.226;11.686;2024-03-07T16:42:25;11.37;;;9.60;;
32964;SDS011;19317;48.226;11.686;2024-03-07T16:47:16;10.50;;;9.40;;
32964;SDS011;19317;48.226;11.686;2024-03-07T16:52:07;11.20;;;9.27;;
32964;SDS011;19317;48.226;11.686;2024-03-07T16:56:58;10.30;;;9.20;;
32964;SDS011;19317;48.226;11.686;2024-03-07T17:01:49;12.87;;;9.67;;
32964;SDS011;19317;48.226;11.686;2024-03-07T17:06:40;11.07;;;9.23;;
32964;SDS011;19317;48.226;11.686;2024-03-07T17:11:31;11.93;;;10.40;;
32964;SDS011;19317;48.226;11.686;2024-03-07T17:16:23;12.80;;;10.47;;
32964;SDS011;19317;48.226;11.686;2024-03-07T17:21:14;12.80;;;10.27;;
32964;SDS011;19317;48.226;11.686;2024-03-07T17:26:05;12.20;;;10.10;;
32964;SDS011;19317;48.226;11.686;2024-03-07T17:30:55;12.50;;;10.47;;
32964;SDS011;19317;48.226;11.686;2024-03-07T17:35:46;14.13;;;11.77;;
32964;SDS011;19317;48.226;11.686;2024-03-07T17:40:38;14.37;;;12.47;;
32964;SDS011;19317;48.226;11.686;2024-03-07T17:45:29;14.03;;;11.10;;
32964;SDS011;19317;48.226;11.686;2024-03-07T17:50:20;14.00;;;11.53;;
32964;SDS011;19317;48.226;11.686;2024-03-07T17:55:11;13.60;;;11.27;;
32964;SDS011;19317;48.226;11.686;2024-03-07T18:00:02;15.10;;;12.33;;
32964;SDS011;19317;48.226;11.686;2024-03-07T18:04:53;13.63;;;11.80;;
32964;SDS011;19317;48.226;11.686;2024-03-07T18:09:44;14.30;;;11.97;;
32964;SDS011;19317;48.226;11.686;2024-03-07T18:14:35;14.90;;;13.23;;
32964;SDS011;19317;48.226;11.686;2024-03-07T18:19:26;14.37;;;12.10;;
32964;SDS011;19317;48.226;11.686;2024-03-07T18:24:17;14.53;;;12.53;;
32964;SDS011;19317;48.226;11.686;2024-03-07T18:29:08;16.43;;;12.73;;
32964;SDS011;19317;48.226;11.686;2024-03-07T18:33:58;15.43;;;12.37;;
32964;SDS011;19317;48.226;11.686;2024-03-07T18:38:49;15.97;;;13.00;;
32964;SDS011;19317;48.226;11.686;2024-03-07T18:43:40;15.20;;;12.50;;
32964;SDS011;19317;48.226;11.686;2024-03-07T18:48:31;13.83;;;12.03;;
32964;SDS011;19317;48.226;11.686;2024-03-07T18:53:22;14.63;;;12.50;;
32964;SDS011;19317;48.226;11.686;2024-03-07T18:58:13;14.33;;;12.10;;
32964;SDS011;19317;48.226;11.686;2024-03-07T19:03:07;14.07;;;12.17;;
32964;SDS011;19317;48.226;11.686;2024-03-07T19:08:00;13.93;;;11.53;;
32964;SDS011;19317;48.226;11.686;2024-03-07T19:12:51;15.33;;;12.60;;
32964;SDS011;19317;48.226;11.686;2024-03-07T19:17:42;14.03;;;11.20;;
32964;SDS011;19317;48.226;11.686;2024-03-07T19:22:33;14.03;;;11.57;;
32964;SDS011;19317;48.226;11.686;2024-03-07T19:27:24;15.20;;;11.67;;
32964;SDS011;19317;48.226;11.686;2024-03-07T19:32:15;15.77;;;12.50;;
32964;SDS011;19317;48.226;11.686;2024-03-07T19:37:05;14.73;;;12.13;;
32964;SDS011;19317;48.226;11.686;2024-03-07T19:41:56;15.63;;;12.30;;
32964;SDS011;19317;48.226;11.686;2024-03-07T19:46:47;15.23;;;11.47;;
32964;SDS011;19317;48.226;11.686;2024-03-07T19:51:38;15.10;;;11.90;;
32964;SDS011;19317;48.226;11.686;2024-03-07T19:56:29;14.17;;;11.33;;
32964;SDS011;19317;48.226;11.686;2024-03-07T20:01:20;16.10;;;12.77;;
32964;SDS011;19317;48.226;11.686;2024-03-07T20:06:11;17.80;;;12.10;;
32964;SDS011;19317;48.226;11.686;2024-03-07T20:11:01;15.90;;;12.10;;
32964;SDS011;19317;48.226;11.686;2024-03-07T20:15:52;15.27;;;12.63;;
32964;SDS011;19317;48.226;11.686;2024-03-07T20:20:43;15.60;;;12.47;;
32964;SDS011;19317;48.226;11.686;2024-03-07T20:25:34;16.70;;;12.37;;
32964;SDS011;19317;48.226;11.686;2024-03-07T20:30:25;15.77;;;11.40;;
32964;SDS011;19317;48.226;11.686;2024-03-07T20:35:16;15.43;;;12.37;;
32964;SDS011;19317;48.226;11.686;2024-03-07T20:40:07;15.60;;;11.80;;
32964;SDS011;19317;48.226;11.686;2024-03-07T20:44:58;17.30;;;12.70;;
32964;SDS011;19317;48.226;11.686;2024-03-07T20:49:49;15.33;;;12.50;;
32964;SDS011;19317;48.226;11.686;2024-03-07T20:54:40;16.47;;;13.20;;
32964;SDS011;19317;48.226;11.686;2024-03-07T20:59:31;15.43;;;12.67;;
32964;SDS011;19317;48.226;11.686;2024-03-07T21:04:22;15.77;;;12.17;;
32964;SDS011;19317;48.226;11.686;2024-03-07T21:09:13;15.30;;;12.37;;
32964;SDS011;19317;48.226;11.686;2024-03-07T21:14:06;17.77;;;11.80;;
32964;SDS011;19317;48.226;11.686;2024-03-07T21:18:57;17.00;;;12.60;;
32964;SDS011;19317;48.226;11.686;2024-03-07T21:23:48;16.87;;;11.97;;
32964;SDS011;19317;48.226;11.686;2024-03-07T21:28:39;15.83;;;12.57;;
32964;SDS011;19317;48.226;11.686;2024-03-07T21:33:30;15.23;;;12.03;;
32964;SDS011;19317;48.226;11.686;2024-03-07T21:38:21;16.23;;;12.23;;
32964;SDS011;19317;48.226;11.686;2024-03-07T21:43:12;16.20;;;13.30;;
32964;SDS011;19317;48.226;11.686;2024-03-07T21:48:03;17.77;;;12.67;;
32964;SDS011;19317;48.226;11.686;2024-03-07T21:52:54;15.87;;;12.60;;
32964;SDS011;19317;48.226;11.686;2024-03-07T21:57:44;18.10;;;12.70;;
32964;SDS011;19317;48.226;11.686;2024-03-07T22:02:35;16.60;;;12.63;;
32964;SDS011;19317;48.226;11.686;2024-03-07T22:07:26;15.80;;;12.67;;
32964;SDS011;19317;48.226;11.686;2024-03-07T22:12:17;15.90;;;11.83;;
32964;SDS011;19317;48.226;11.686;2024-03-07T22:17:08;16.17;;;12.60;;
32964;SDS011;19317;48.226;11.686;2024-03-07T22:21:59;15.03;;;12.23;;
32964;SDS011;19317;48.226;11.686;2024-03-07T22:26:50;16.37;;;12.37;;
32964;SDS011;19317;48.226;11.686;2024-03-07T22:31:41;13.63;;;11.70;;
32964;SDS011;19317;48.226;11.686;2024-03-07T22:36:31;16.03;;;12.13;;
32964;SDS011;19317;48.226;11.686;2024-03-07T22:41:22;16.10;;;12.83;;
32964;SDS011;19317;48.226;11.686;2024-03-07T22:46:13;14.07;;;11.30;;
32964;SDS011;19317;48.226;11.686;2024-03-07T22:51:04;15.40;;;11.80;;
32964;SDS011;19317;48.226;11.686;2024-03-07T22:55:55;14.57;;;11.70;;
32964;SDS011;19317;48.226;11.686;2024-03-07T23:00:46;16.13;;;11.90;;
32964;SDS011;19317;48.226;11.686;2024-03-07T23:05:37;15.43;;;11.30;;
32964;SDS011;19317;48.226;11.686;2024-03-07T23:10:28;14.43;;;11.87;;
32964;SDS011;19317;48.226;11.686;2024-03-07T23:15:18;15.70;;;11.60;;
32964;SDS011;19317;48.226;11.686;2024-03-07T23:20:10;16.53;;;11.87;;
32964;SDS011;19317;48.226;11.686;2024-03-07T23:25:01;14.43;;;11.83;;
32964;SDS011;19317;48.226;11.686;2024-03-07T23:29:52;17.27;;;11.80;;
32964;SDS011;19317;48.226;11.686;2024-03-07T23:34:43;15.40;;;12.10;;
32964;SDS011;19317;48.226;11.686;2024-03-07T23:39:34;15.27;;;11.53;;
32964;SDS011;19317;48.226;11.686;2024-03-07T23:44:24;12.90;;;10.63;;
32964;SDS011;19317;48.226;11.686;2024-03-07T23:49:15;15.40;;;11.27;;
32964;SDS011;19317;48.226;11.686;2024-03-07T23:54:06;14.17;;;11.63;;
32964;SDS011;19317;48.226;11.686;2024-03-07T23:58:57;16.37;;;11.00;;
